Sao Jorge — CSIA — position and weather

sailwx.info

Track history (hours):
 
Tides and Currents Weather Stations Pressure Air Temp Water Temp Dewpoint Dewpoint Depression Visibility Wind Speed Wind Dir Waves Ship Positions

Sao Jorge

Last reported at 2014-Sep-15 08:33 UTC. Time now 2014-Sep-15 09:35 UTC.
Position N 38°41' W 009°09'.

Length 59 m; draft 24.8 m.

Type: Passenger vessel. MMSI: 263701790.

Date/timePositionNaut miles runAvg speedWind from/ knotsBaromVisibWave heightAir tempDewpointWater temp
2014-Sep-15 08:33N 38°41' W 009°09'0 0.0
2014-Sep-15 07:33N 38°41' W 009°09'1 0.6
2014-Sep-15 06:33N 38°42' W 009°09'1 0.0
2014-Sep-13 14:33N 38°41' W 009°09'0 0.0
2014-Sep-13 13:33N 38°41' W 009°09'0 0.0
2014-Sep-13 12:33N 38°41' W 009°09'0 0.0
2014-Sep-13 11:33N 38°41' W 009°09'0 0.0
2014-Sep-13 10:34N 38°41' W 009°09'0 0.0
2014-Sep-13 09:33N 38°41' W 009°09'0 0.0
2014-Sep-13 08:33N 38°41' W 009°09'0 0.0
2014-Sep-13 07:33N 38°41' W 009°09'0 0.0
2014-Sep-12 19:11N 38°41' W 009°09'0 0.0
2014-Sep-12 18:33N 38°41' W 009°09'0 0.1
2014-Sep-12 17:33N 38°41' W 009°09'1 0.6
2014-Sep-12 16:33N 38°42' W 009°09'1 0.6
2014-Sep-12 15:33N 38°41' W 009°09'0 0.0
2014-Sep-12 08:33N 38°41' W 009°09'0 0.0
2014-Sep-12 07:33N 38°41' W 009°09'1 0.6
2014-Sep-12 06:33N 38°42' W 009°09'1 0.6
2014-Sep-12 05:34N 38°41' W 009°09'0 0.0
2014-Sep-11 19:10N 38°41' W 009°09'0 0.0
2014-Sep-11 18:33N 38°41' W 009°09'0 0.2
2014-Sep-11 17:33N 38°41' W 009°09'0 0.4
2014-Sep-11 16:33N 38°42' W 009°09'1 0.6
2014-Sep-11 15:33N 38°41' W 009°09'0 0.0
2014-Sep-11 08:34N 38°41' W 009°09'0 0.0
2014-Sep-11 07:33N 38°41' W 009°09'1 0.6
2014-Sep-11 06:33N 38°42' W 009°09'1 0.6
2014-Sep-11 05:34N 38°41' W 009°09'0 0.0
2014-Sep-10 19:08N 38°41' W 009°09'0 0.0
2014-Sep-10 18:33N 38°41' W 009°09'0 0.2
2014-Sep-10 17:34N 38°41' W 009°09'1 0.5
2014-Sep-10 16:33N 38°42' W 009°09'1 0.6
2014-Sep-10 15:33N 38°41' W 009°09'0 0.0
2014-Sep-10 13:06N 38°41' W 009°09'0 0.0
2014-Sep-10 12:34N 38°41' W 009°09'0 0.0
2014-Sep-10 08:33N 38°41' W 009°09'0 0.0
2014-Sep-10 07:33N 38°41' W 009°09'1 0.7
2014-Sep-10 06:33N 38°42' W 009°09'1 0.7
2014-Sep-10 05:33N 38°41' W 009°09'0 0.0
2014-Sep-09 19:09N 38°41' W 009°09'0 0.0
2014-Sep-09 18:33N 38°41' W 009°09'0 0.1
2014-Sep-09 17:33N 38°41' W 009°09'1 0.7
2014-Sep-09 16:33N 38°42' W 009°09'1 0.7
2014-Sep-09 15:34N 38°41' W 009°09'0 0.0
2014-Sep-08 18:34N 38°41' W 009°09'0 0.0
2014-Sep-08 09:12N 38°41' W 009°09'  
2014-Sep-05 21:33N 38°41' W 009°09'1 1.3
2014-Sep-05 20:33N 38°42' W 009°08'2 1.8
2014-Sep-05 19:33N 38°42' W 009°10'7 6.8
2014-Sep-05 18:33N 38°47' W 009°05'5 5.3
2014-Sep-05 17:33N 38°42' W 009°08'1 1.3
2014-Sep-05 16:33N 38°41' W 009°09'0 0.0
2014-Sep-05 15:33N 38°41' W 009°09'0 0.0
2014-Sep-05 14:34N 38°41' W 009°09'0 0.0
2014-Sep-05 13:33N 38°41' W 009°09'0 0.0
2014-Sep-05 12:33N 38°41' W 009°09'0 0.0
2014-Sep-05 11:33N 38°41' W 009°09'  
Track history (hours):
 
Tides and Currents Weather Stations Pressure Air Temp Water Temp Dewpoint Dewpoint Depression Visibility Wind Speed Wind Dir Waves Ship Positions

Sao Jorge

Last reported at 2014-Sep-15 08:33 UTC. Time now 2014-Sep-15 09:35 UTC.
Position N 38°41' W 009°09'.

Length 59 m; draft 24.8 m.

Type: Passenger vessel. MMSI: 263701790.

Date/timePositionNaut miles runAvg speedWind from/ knotsBaromVisibWave heightAir tempDewpointWater temp
2014-Sep-15 08:33N 38°41' W 009°09'0 0.0
2014-Sep-15 07:33N 38°41' W 009°09'1 0.6
2014-Sep-15 06:33N 38°42' W 009°09'1 0.0
2014-Sep-13 14:33N 38°41' W 009°09'0 0.0
2014-Sep-13 13:33N 38°41' W 009°09'0 0.0
2014-Sep-13 12:33N 38°41' W 009°09'0 0.0
2014-Sep-13 11:33N 38°41' W 009°09'0 0.0
2014-Sep-13 10:34N 38°41' W 009°09'0 0.0
2014-Sep-13 09:33N 38°41' W 009°09'0 0.0
2014-Sep-13 08:33N 38°41' W 009°09'0 0.0
2014-Sep-13 07:33N 38°41' W 009°09'0 0.0
2014-Sep-12 19:11N 38°41' W 009°09'0 0.0
2014-Sep-12 18:33N 38°41' W 009°09'0 0.1
2014-Sep-12 17:33N 38°41' W 009°09'1 0.6
2014-Sep-12 16:33N 38°42' W 009°09'1 0.6
2014-Sep-12 15:33N 38°41' W 009°09'0 0.0
2014-Sep-12 08:33N 38°41' W 009°09'0 0.0
2014-Sep-12 07:33N 38°41' W 009°09'1 0.6
2014-Sep-12 06:33N 38°42' W 009°09'1 0.6
2014-Sep-12 05:34N 38°41' W 009°09'0 0.0
2014-Sep-11 19:10N 38°41' W 009°09'0 0.0
2014-Sep-11 18:33N 38°41' W 009°09'0 0.2
2014-Sep-11 17:33N 38°41' W 009°09'0 0.4
2014-Sep-11 16:33N 38°42' W 009°09'1 0.6
2014-Sep-11 15:33N 38°41' W 009°09'0 0.0
2014-Sep-11 08:34N 38°41' W 009°09'0 0.0
2014-Sep-11 07:33N 38°41' W 009°09'1 0.6
2014-Sep-11 06:33N 38°42' W 009°09'1 0.6
2014-Sep-11 05:34N 38°41' W 009°09'0 0.0
2014-Sep-10 19:08N 38°41' W 009°09'0 0.0
2014-Sep-10 18:33N 38°41' W 009°09'0 0.2
2014-Sep-10 17:34N 38°41' W 009°09'1 0.5
2014-Sep-10 16:33N 38°42' W 009°09'1 0.6
2014-Sep-10 15:33N 38°41' W 009°09'0 0.0
2014-Sep-10 13:06N 38°41' W 009°09'0 0.0
2014-Sep-10 12:34N 38°41' W 009°09'0 0.0
2014-Sep-10 08:33N 38°41' W 009°09'0 0.0
2014-Sep-10 07:33N 38°41' W 009°09'1 0.7
2014-Sep-10 06:33N 38°42' W 009°09'1 0.7
2014-Sep-10 05:33N 38°41' W 009°09'0 0.0
2014-Sep-09 19:09N 38°41' W 009°09'0 0.0
2014-Sep-09 18:33N 38°41' W 009°09'0 0.1
2014-Sep-09 17:33N 38°41' W 009°09'1 0.7
2014-Sep-09 16:33N 38°42' W 009°09'1 0.7
2014-Sep-09 15:34N 38°41' W 009°09'0 0.0
2014-Sep-08 18:34N 38°41' W 009°09'0 0.0
2014-Sep-08 09:12N 38°41' W 009°09'  
2014-Sep-05 21:33N 38°41' W 009°09'1 1.3
2014-Sep-05 20:33N 38°42' W 009°08'2 1.8
2014-Sep-05 19:33N 38°42' W 009°10'7 6.8
2014-Sep-05 18:33N 38°47' W 009°05'5 5.3
2014-Sep-05 17:33N 38°42' W 009°08'1 1.3
2014-Sep-05 16:33N 38°41' W 009°09'0 0.0
2014-Sep-05 15:33N 38°41' W 009°09'0 0.0
2014-Sep-05 14:34N 38°41' W 009°09'0 0.0
2014-Sep-05 13:33N 38°41' W 009°09'0 0.0
2014-Sep-05 12:33N 38°41' W 009°09'0 0.0
2014-Sep-05 11:33N 38°41' W 009°09'  

Dump ship's entire track history